Aviation Digital Data Service (ADDS)

Output produced by METARs form (1351 UTC 10 July 2020)
found at http://www.aviationweather.gov/metar/data/
 
KDLH 101130Z 1012/1112 32010KT P6SM SKC